sensor_id;sensor_type;location;lat;lon;timestamp;P1;durP1;ratioP1;P2;durP2;ratioP2
15944;SDS011;30172;48.832;8.732;2024-01-30T00:01:47;4.63;;;1.63;;
15944;SDS011;30172;48.832;8.732;2024-01-30T00:04:12;2.63;;;1.60;;
15944;SDS011;30172;48.832;8.732;2024-01-30T00:06:37;1.97;;;1.50;;
15944;SDS011;30172;48.832;8.732;2024-01-30T00:09:02;1.83;;;1.33;;
15944;SDS011;30172;48.832;8.732;2024-01-30T00:11:28;1.63;;;1.50;;
15944;SDS011;30172;48.832;8.732;2024-01-30T00:13:54;2.17;;;1.97;;
15944;SDS011;30172;48.832;8.732;2024-01-30T00:16:21;2.27;;;1.60;;
15944;SDS011;30172;48.832;8.732;2024-01-30T00:18:48;2.27;;;2.03;;
15944;SDS011;30172;48.832;8.732;2024-01-30T00:21:14;3.67;;;1.67;;
15944;SDS011;30172;48.832;8.732;2024-01-30T00:23:39;4.50;;;1.97;;
15944;SDS011;30172;48.832;8.732;2024-01-30T00:26:04;2.70;;;1.70;;
15944;SDS011;30172;48.832;8.732;2024-01-30T00:28:31;21.77;;;9.13;;
15944;SDS011;30172;48.832;8.732;2024-01-30T00:30:56;5.07;;;3.33;;
15944;SDS011;30172;48.832;8.732;2024-01-30T00:33:21;3.10;;;2.47;;
15944;SDS011;30172;48.832;8.732;2024-01-30T00:35:47;9.60;;;5.10;;
15944;SDS011;30172;48.832;8.732;2024-01-30T00:38:12;3.70;;;2.60;;
15944;SDS011;30172;48.832;8.732;2024-01-30T00:40:37;4.17;;;2.33;;
15944;SDS011;30172;48.832;8.732;2024-01-30T00:43:03;4.43;;;2.20;;
15944;SDS011;30172;48.832;8.732;2024-01-30T00:45:28;1.83;;;1.70;;
15944;SDS011;30172;48.832;8.732;2024-01-30T00:47:53;3.67;;;2.03;;
15944;SDS011;30172;48.832;8.732;2024-01-30T00:50:19;2.87;;;2.20;;
15944;SDS011;30172;48.832;8.732;2024-01-30T00:52:44;4.07;;;2.33;;
15944;SDS011;30172;48.832;8.732;2024-01-30T00:55:10;3.00;;;2.10;;
15944;SDS011;30172;48.832;8.732;2024-01-30T00:57:36;3.30;;;2.37;;
15944;SDS011;30172;48.832;8.732;2024-01-30T01:00:01;3.17;;;2.70;;
15944;SDS011;30172;48.832;8.732;2024-01-30T01:02:27;3.30;;;2.27;;
15944;SDS011;30172;48.832;8.732;2024-01-30T01:04:53;2.43;;;1.97;;
15944;SDS011;30172;48.832;8.732;2024-01-30T01:07:18;2.07;;;1.70;;
15944;SDS011;30172;48.832;8.732;2024-01-30T01:09:43;2.13;;;1.93;;
15944;SDS011;30172;48.832;8.732;2024-01-30T01:12:09;3.87;;;2.07;;
15944;SDS011;30172;48.832;8.732;2024-01-30T01:14:34;3.10;;;1.57;;
15944;SDS011;30172;48.832;8.732;2024-01-30T01:17:01;6.70;;;2.10;;
15944;SDS011;30172;48.832;8.732;2024-01-30T01:19:26;2.17;;;1.67;;
15944;SDS011;30172;48.832;8.732;2024-01-30T01:21:51;2.27;;;1.57;;
15944;SDS011;30172;48.832;8.732;2024-01-30T01:24:18;3.23;;;1.90;;
15944;SDS011;30172;48.832;8.732;2024-01-30T01:26:43;2.80;;;1.90;;
15944;SDS011;30172;48.832;8.732;2024-01-30T01:29:09;3.23;;;2.00;;
15944;SDS011;30172;48.832;8.732;2024-01-30T01:31:36;2.47;;;2.27;;
15944;SDS011;30172;48.832;8.732;2024-01-30T01:34:08;3.37;;;1.70;;
15944;SDS011;30172;48.832;8.732;2024-01-30T01:36:34;2.67;;;1.80;;
15944;SDS011;30172;48.832;8.732;2024-01-30T01:38:59;3.50;;;1.80;;
15944;SDS011;30172;48.832;8.732;2024-01-30T01:41:25;3.67;;;1.70;;
15944;SDS011;30172;48.832;8.732;2024-01-30T01:43:55;2.17;;;1.50;;
15944;SDS011;30172;48.832;8.732;2024-01-30T01:46:20;3.97;;;1.80;;
15944;SDS011;30172;48.832;8.732;2024-01-30T01:48:45;2.40;;;1.80;;
15944;SDS011;30172;48.832;8.732;2024-01-30T01:51:11;3.77;;;1.60;;
15944;SDS011;30172;48.832;8.732;2024-01-30T01:53:37;2.43;;;1.63;;
15944;SDS011;30172;48.832;8.732;2024-01-30T01:56:03;2.97;;;1.60;;
15944;SDS011;30172;48.832;8.732;2024-01-30T01:58:28;2.20;;;1.77;;
15944;SDS011;30172;48.832;8.732;2024-01-30T02:00:54;3.67;;;1.80;;
15944;SDS011;30172;48.832;8.732;2024-01-30T02:03:20;1.97;;;1.77;;
15944;SDS011;30172;48.832;8.732;2024-01-30T02:05:46;2.10;;;1.70;;
15944;SDS011;30172;48.832;8.732;2024-01-30T02:08:11;1.90;;;1.70;;
15944;SDS011;30172;48.832;8.732;2024-01-30T02:10:37;2.10;;;1.80;;
15944;SDS011;30172;48.832;8.732;2024-01-30T02:13:02;1.70;;;1.60;;
15944;SDS011;30172;48.832;8.732;2024-01-30T02:15:28;2.37;;;1.87;;
15944;SDS011;30172;48.832;8.732;2024-01-30T02:17:54;3.27;;;1.90;;
15944;SDS011;30172;48.832;8.732;2024-01-30T02:20:19;2.73;;;1.60;;
15944;SDS011;30172;48.832;8.732;2024-01-30T02:22:45;1.97;;;1.63;;
15944;SDS011;30172;48.832;8.732;2024-01-30T02:25:11;2.40;;;1.67;;
15944;SDS011;30172;48.832;8.732;2024-01-30T02:27:36;2.83;;;2.53;;
15944;SDS011;30172;48.832;8.732;2024-01-30T02:30:02;2.03;;;1.60;;
15944;SDS011;30172;48.832;8.732;2024-01-30T02:32:27;2.97;;;1.67;;
15944;SDS011;30172;48.832;8.732;2024-01-30T02:34:52;2.57;;;1.80;;
15944;SDS011;30172;48.832;8.732;2024-01-30T02:37:18;3.20;;;1.60;;
15944;SDS011;30172;48.832;8.732;2024-01-30T02:39:43;2.67;;;1.80;;
15944;SDS011;30172;48.832;8.732;2024-01-30T02:42:08;2.33;;;1.80;;
15944;SDS011;30172;48.832;8.732;2024-01-30T02:44:34;2.17;;;1.60;;
15944;SDS011;30172;48.832;8.732;2024-01-30T02:46:59;1.97;;;1.63;;
15944;SDS011;30172;48.832;8.732;2024-01-30T02:49:24;3.43;;;1.80;;
15944;SDS011;30172;48.832;8.732;2024-01-30T02:51:50;1.80;;;1.60;;
15944;SDS011;30172;48.832;8.732;2024-01-30T02:54:16;3.57;;;1.83;;
15944;SDS011;30172;48.832;8.732;2024-01-30T02:56:41;3.20;;;2.17;;
15944;SDS011;30172;48.832;8.732;2024-01-30T02:59:06;2.10;;;1.80;;
15944;SDS011;30172;48.832;8.732;2024-01-30T03:01:32;2.30;;;1.90;;
15944;SDS011;30172;48.832;8.732;2024-01-30T03:03:57;3.50;;;1.93;;
15944;SDS011;30172;48.832;8.732;2024-01-30T03:06:22;1.87;;;1.53;;
15944;SDS011;30172;48.832;8.732;2024-01-30T03:08:48;3.63;;;1.90;;
15944;SDS011;30172;48.832;8.732;2024-01-30T03:11:13;1.97;;;1.73;;
15944;SDS011;30172;48.832;8.732;2024-01-30T03:13:38;1.67;;;1.57;;
15944;SDS011;30172;48.832;8.732;2024-01-30T03:16:04;2.70;;;1.80;;
15944;SDS011;30172;48.832;8.732;2024-01-30T03:18:29;3.93;;;1.63;;
15944;SDS011;30172;48.832;8.732;2024-01-30T03:20:55;2.13;;;1.60;;
15944;SDS011;30172;48.832;8.732;2024-01-30T03:23:20;2.70;;;1.70;;
15944;SDS011;30172;48.832;8.732;2024-01-30T03:25:45;2.77;;;1.53;;
15944;SDS011;30172;48.832;8.732;2024-01-30T03:28:11;2.60;;;1.70;;
15944;SDS011;30172;48.832;8.732;2024-01-30T03:30:36;2.63;;;1.70;;
15944;SDS011;30172;48.832;8.732;2024-01-30T03:33:02;2.03;;;1.80;;
15944;SDS011;30172;48.832;8.732;2024-01-30T03:35:27;2.47;;;1.93;;
15944;SDS011;30172;48.832;8.732;2024-01-30T03:37:52;2.43;;;1.80;;
15944;SDS011;30172;48.832;8.732;2024-01-30T03:40:17;2.03;;;1.83;;
15944;SDS011;30172;48.832;8.732;2024-01-30T03:42:43;1.97;;;1.63;;
15944;SDS011;30172;48.832;8.732;2024-01-30T03:45:08;3.37;;;1.77;;
15944;SDS011;30172;48.832;8.732;2024-01-30T03:47:34;4.27;;;1.67;;
15944;SDS011;30172;48.832;8.732;2024-01-30T03:49:59;2.97;;;1.77;;
15944;SDS011;30172;48.832;8.732;2024-01-30T03:52:24;1.63;;;1.50;;
15944;SDS011;30172;48.832;8.732;2024-01-30T03:54:49;2.70;;;1.83;;
15944;SDS011;30172;48.832;8.732;2024-01-30T03:57:15;3.67;;;1.83;;
15944;SDS011;30172;48.832;8.732;2024-01-30T03:59:43;4.23;;;1.60;;
15944;SDS011;30172;48.832;8.732;2024-01-30T04:02:09;1.77;;;1.37;;
15944;SDS011;30172;48.832;8.732;2024-01-30T04:04:36;2.80;;;1.90;;
15944;SDS011;30172;48.832;8.732;2024-01-30T04:07:01;1.97;;;1.40;;
15944;SDS011;30172;48.832;8.732;2024-01-30T04:09:27;4.37;;;1.93;;
15944;SDS011;30172;48.832;8.732;2024-01-30T04:11:53;3.03;;;1.40;;
15944;SDS011;30172;48.832;8.732;2024-01-30T04:14:19;2.57;;;1.50;;
15944;SDS011;30172;48.832;8.732;2024-01-30T04:16:44;3.50;;;1.77;;
15944;SDS011;30172;48.832;8.732;2024-01-30T04:19:09;2.93;;;1.70;;
15944;SDS011;30172;48.832;8.732;2024-01-30T04:21:34;1.90;;;1.60;;
15944;SDS011;30172;48.832;8.732;2024-01-30T04:24:00;2.17;;;1.97;;
15944;SDS011;30172;48.832;8.732;2024-01-30T04:26:25;2.57;;;1.67;;
15944;SDS011;30172;48.832;8.732;2024-01-30T04:28:50;2.00;;;1.80;;
15944;SDS011;30172;48.832;8.732;2024-01-30T04:31:16;2.73;;;1.63;;
15944;SDS011;30172;48.832;8.732;2024-01-30T04:33:41;3.13;;;1.63;;
15944;SDS011;30172;48.832;8.732;2024-01-30T04:36:08;2.00;;;1.73;;
15944;SDS011;30172;48.832;8.732;2024-01-30T04:38:35;2.23;;;1.70;;
15944;SDS011;30172;48.832;8.732;2024-01-30T04:41:00;2.33;;;1.50;;
15944;SDS011;30172;48.832;8.732;2024-01-30T04:43:25;2.40;;;1.60;;
15944;SDS011;30172;48.832;8.732;2024-01-30T04:45:51;2.27;;;1.70;;
15944;SDS011;30172;48.832;8.732;2024-01-30T04:48:17;2.50;;;1.57;;
15944;SDS011;30172;48.832;8.732;2024-01-30T04:50:42;2.37;;;1.80;;
15944;SDS011;30172;48.832;8.732;2024-01-30T04:53:07;2.53;;;1.50;;
15944;SDS011;30172;48.832;8.732;2024-01-30T04:55:33;2.13;;;1.67;;
15944;SDS011;30172;48.832;8.732;2024-01-30T04:57:58;2.90;;;1.80;;
15944;SDS011;30172;48.832;8.732;2024-01-30T05:00:23;4.13;;;1.80;;
15944;SDS011;30172;48.832;8.732;2024-01-30T05:02:48;1.63;;;1.53;;
15944;SDS011;30172;48.832;8.732;2024-01-30T05:05:14;2.10;;;1.70;;
15944;SDS011;30172;48.832;8.732;2024-01-30T05:07:41;3.93;;;1.67;;
15944;SDS011;30172;48.832;8.732;2024-01-30T05:10:06;3.47;;;1.77;;
15944;SDS011;30172;48.832;8.732;2024-01-30T05:12:31;4.33;;;2.07;;
15944;SDS011;30172;48.832;8.732;2024-01-30T05:14:57;2.33;;;1.70;;
15944;SDS011;30172;48.832;8.732;2024-01-30T05:17:22;3.67;;;1.70;;
15944;SDS011;30172;48.832;8.732;2024-01-30T05:19:47;2.50;;;1.97;;
15944;SDS011;30172;48.832;8.732;2024-01-30T05:22:13;2.83;;;2.00;;
15944;SDS011;30172;48.832;8.732;2024-01-30T05:24:42;2.10;;;1.90;;
15944;SDS011;30172;48.832;8.732;2024-01-30T05:27:08;2.87;;;2.30;;
15944;SDS011;30172;48.832;8.732;2024-01-30T05:29:33;2.00;;;1.90;;
15944;SDS011;30172;48.832;8.732;2024-01-30T05:31:58;2.13;;;1.70;;
15944;SDS011;30172;48.832;8.732;2024-01-30T05:34:24;2.33;;;1.93;;
15944;SDS011;30172;48.832;8.732;2024-01-30T05:36:49;3.20;;;2.60;;
15944;SDS011;30172;48.832;8.732;2024-01-30T05:39:14;4.97;;;2.60;;
15944;SDS011;30172;48.832;8.732;2024-01-30T05:41:40;5.33;;;2.90;;
15944;SDS011;30172;48.832;8.732;2024-01-30T05:44:05;4.03;;;3.07;;
15944;SDS011;30172;48.832;8.732;2024-01-30T05:46:30;6.50;;;4.87;;
15944;SDS011;30172;48.832;8.732;2024-01-30T05:48:56;7.90;;;6.20;;
15944;SDS011;30172;48.832;8.732;2024-01-30T05:51:21;8.67;;;5.70;;
15944;SDS011;30172;48.832;8.732;2024-01-30T05:53:46;6.07;;;4.67;;
15944;SDS011;30172;48.832;8.732;2024-01-30T05:56:12;6.97;;;4.17;;
15944;SDS011;30172;48.832;8.732;2024-01-30T05:58:37;4.50;;;3.37;;
15944;SDS011;30172;48.832;8.732;2024-01-30T06:01:06;6.40;;;3.10;;
15944;SDS011;30172;48.832;8.732;2024-01-30T06:03:32;3.13;;;2.20;;
15944;SDS011;30172;48.832;8.732;2024-01-30T06:05:58;3.23;;;2.37;;
15944;SDS011;30172;48.832;8.732;2024-01-30T06:08:23;4.07;;;2.30;;
15944;SDS011;30172;48.832;8.732;2024-01-30T06:10:48;4.07;;;2.10;;
15944;SDS011;30172;48.832;8.732;2024-01-30T06:13:14;5.97;;;2.60;;
15944;SDS011;30172;48.832;8.732;2024-01-30T06:15:39;3.43;;;2.70;;
15944;SDS011;30172;48.832;8.732;2024-01-30T06:18:05;3.07;;;2.60;;
15944;SDS011;30172;48.832;8.732;2024-01-30T06:20:30;4.17;;;3.50;;
15944;SDS011;30172;48.832;8.732;2024-01-30T06:22:55;3.43;;;2.37;;
15944;SDS011;30172;48.832;8.732;2024-01-30T06:25:21;3.00;;;2.40;;
15944;SDS011;30172;48.832;8.732;2024-01-30T06:27:46;4.03;;;3.17;;
15944;SDS011;30172;48.832;8.732;2024-01-30T06:30:11;4.57;;;4.17;;
15944;SDS011;30172;48.832;8.732;2024-01-30T06:32:37;4.03;;;3.63;;
15944;SDS011;30172;48.832;8.732;2024-01-30T06:35:03;3.57;;;2.80;;
15944;SDS011;30172;48.832;8.732;2024-01-30T06:37:29;3.43;;;3.00;;
15944;SDS011;30172;48.832;8.732;2024-01-30T06:39:54;3.93;;;2.80;;
15944;SDS011;30172;48.832;8.732;2024-01-30T06:42:19;5.33;;;2.60;;
15944;SDS011;30172;48.832;8.732;2024-01-30T06:44:45;2.73;;;2.53;;
15944;SDS011;30172;48.832;8.732;2024-01-30T06:47:10;4.50;;;2.80;;
15944;SDS011;30172;48.832;8.732;2024-01-30T06:49:36;4.03;;;2.70;;
15944;SDS011;30172;48.832;8.732;2024-01-30T06:52:04;3.77;;;2.23;;
15944;SDS011;30172;48.832;8.732;2024-01-30T06:54:30;3.57;;;2.37;;
15944;SDS011;30172;48.832;8.732;2024-01-30T06:56:56;5.07;;;3.93;;
15944;SDS011;30172;48.832;8.732;2024-01-30T06:59:21;3.07;;;2.73;;
15944;SDS011;30172;48.832;8.732;2024-01-30T07:01:46;3.23;;;2.70;;
15944;SDS011;30172;48.832;8.732;2024-01-30T07:04:11;5.37;;;2.50;;
15944;SDS011;30172;48.832;8.732;2024-01-30T07:06:37;4.40;;;3.00;;
15944;SDS011;30172;48.832;8.732;2024-01-30T07:09:02;3.33;;;2.57;;
15944;SDS011;30172;48.832;8.732;2024-01-30T07:11:28;3.07;;;2.33;;
15944;SDS011;30172;48.832;8.732;2024-01-30T07:13:53;2.90;;;2.50;;
15944;SDS011;30172;48.832;8.732;2024-01-30T07:16:20;6.80;;;3.00;;
15944;SDS011;30172;48.832;8.732;2024-01-30T07:18:45;4.67;;;3.07;;
15944;SDS011;30172;48.832;8.732;2024-01-30T07:21:12;5.33;;;2.63;;
15944;SDS011;30172;48.832;8.732;2024-01-30T07:23:37;5.13;;;2.27;;
15944;SDS011;30172;48.832;8.732;2024-01-30T07:26:04;2.03;;;1.83;;
15944;SDS011;30172;48.832;8.732;2024-01-30T07:28:30;3.77;;;1.83;;
15944;SDS011;30172;48.832;8.732;2024-01-30T07:30:55;4.50;;;1.80;;
15944;SDS011;30172;48.832;8.732;2024-01-30T07:33:20;3.30;;;1.90;;
15944;SDS011;30172;48.832;8.732;2024-01-30T07:35:46;3.63;;;1.80;;
15944;SDS011;30172;48.832;8.732;2024-01-30T07:38:11;2.30;;;2.00;;
15944;SDS011;30172;48.832;8.732;2024-01-30T07:40:37;4.37;;;2.10;;
15944;SDS011;30172;48.832;8.732;2024-01-30T07:43:02;3.83;;;2.10;;
15944;SDS011;30172;48.832;8.732;2024-01-30T07:45:28;3.13;;;2.17;;
15944;SDS011;30172;48.832;8.732;2024-01-30T07:47:58;3.73;;;2.40;;
15944;SDS011;30172;48.832;8.732;2024-01-30T07:50:24;3.47;;;2.50;;
15944;SDS011;30172;48.832;8.732;2024-01-30T07:52:50;2.93;;;2.10;;
15944;SDS011;30172;48.832;8.732;2024-01-30T07:58:30;3.00;;;2.30;;
15944;SDS011;30172;48.832;8.732;2024-01-30T08:00:55;3.77;;;2.57;;
15944;SDS011;30172;48.832;8.732;2024-01-30T08:03:23;4.83;;;2.33;;
15944;SDS011;30172;48.832;8.732;2024-01-30T08:05:48;2.67;;;1.83;;
15944;SDS011;30172;48.832;8.732;2024-01-30T08:08:17;4.47;;;2.10;;
15944;SDS011;30172;48.832;8.732;2024-01-30T08:10:42;4.07;;;1.60;;
15944;SDS011;30172;48.832;8.732;2024-01-30T08:13:07;2.60;;;1.77;;
15944;SDS011;30172;48.832;8.732;2024-01-30T08:15:33;3.07;;;1.63;;
15944;SDS011;30172;48.832;8.732;2024-01-30T08:17:59;3.10;;;1.43;;
15944;SDS011;30172;48.832;8.732;2024-01-30T08:20:24;2.27;;;1.60;;
15944;SDS011;30172;48.832;8.732;2024-01-30T08:22:50;2.97;;;1.60;;
15944;SDS011;30172;48.832;8.732;2024-01-30T08:25:15;2.17;;;1.97;;
15944;SDS011;30172;48.832;8.732;2024-01-30T08:27:41;2.77;;;2.07;;
15944;SDS011;30172;48.832;8.732;2024-01-30T08:30:06;2.83;;;1.80;;
15944;SDS011;30172;48.832;8.732;2024-01-30T08:32:32;2.23;;;1.70;;
15944;SDS011;30172;48.832;8.732;2024-01-30T08:34:58;2.60;;;1.70;;
15944;SDS011;30172;48.832;8.732;2024-01-30T08:37:23;1.70;;;1.60;;
15944;SDS011;30172;48.832;8.732;2024-01-30T08:39:48;2.20;;;2.00;;
15944;SDS011;30172;48.832;8.732;2024-01-30T08:42:17;3.30;;;1.77;;
15944;SDS011;30172;48.832;8.732;2024-01-30T08:44:47;2.40;;;1.80;;
15944;SDS011;30172;48.832;8.732;2024-01-30T08:47:12;2.60;;;1.83;;
15944;SDS011;30172;48.832;8.732;2024-01-30T08:49:37;4.73;;;2.07;;
15944;SDS011;30172;48.832;8.732;2024-01-30T08:52:03;3.07;;;2.03;;
15944;SDS011;30172;48.832;8.732;2024-01-30T08:54:28;3.80;;;1.97;;
15944;SDS011;30172;48.832;8.732;2024-01-30T08:56:54;2.73;;;2.00;;
15944;SDS011;30172;48.832;8.732;2024-01-30T08:59:21;2.17;;;1.80;;
15944;SDS011;30172;48.832;8.732;2024-01-30T09:01:46;3.33;;;2.17;;
15944;SDS011;30172;48.832;8.732;2024-01-30T09:04:12;2.70;;;2.23;;
15944;SDS011;30172;48.832;8.732;2024-01-30T09:06:37;2.30;;;2.00;;
15944;SDS011;30172;48.832;8.732;2024-01-30T09:09:04;2.53;;;1.90;;
15944;SDS011;30172;48.832;8.732;2024-01-30T09:11:30;2.63;;;2.00;;
15944;SDS011;30172;48.832;8.732;2024-01-30T09:13:55;1.70;;;1.60;;
15944;SDS011;30172;48.832;8.732;2024-01-30T09:16:20;2.63;;;2.00;;
15944;SDS011;30172;48.832;8.732;2024-01-30T09:18:45;3.40;;;1.80;;
15944;SDS011;30172;48.832;8.732;2024-01-30T09:21:11;3.13;;;2.17;;
15944;SDS011;30172;48.832;8.732;2024-01-30T09:23:36;2.17;;;1.80;;
15944;SDS011;30172;48.832;8.732;2024-01-30T09:26:01;3.10;;;1.80;;
15944;SDS011;30172;48.832;8.732;2024-01-30T09:28:27;2.13;;;1.80;;
15944;SDS011;30172;48.832;8.732;2024-01-30T09:30:52;3.43;;;1.90;;
15944;SDS011;30172;48.832;8.732;2024-01-30T09:33:17;2.87;;;1.97;;
15944;SDS011;30172;48.832;8.732;2024-01-30T09:35:42;3.13;;;2.30;;
15944;SDS011;30172;48.832;8.732;2024-01-30T09:38:08;3.30;;;2.10;;
15944;SDS011;30172;48.832;8.732;2024-01-30T09:40:33;2.97;;;1.87;;
15944;SDS011;30172;48.832;8.732;2024-01-30T09:42:58;3.93;;;2.50;;
15944;SDS011;30172;48.832;8.732;2024-01-30T09:45:26;2.87;;;2.33;;
15944;SDS011;30172;48.832;8.732;2024-01-30T09:47:52;2.37;;;2.00;;
15944;SDS011;30172;48.832;8.732;2024-01-30T09:50:18;2.60;;;2.10;;
15944;SDS011;30172;48.832;8.732;2024-01-30T09:52:44;3.27;;;2.00;;
15944;SDS011;30172;48.832;8.732;2024-01-30T09:55:10;2.60;;;2.10;;
15944;SDS011;30172;48.832;8.732;2024-01-30T09:57:35;4.93;;;2.30;;
15944;SDS011;30172;48.832;8.732;2024-01-30T10:00:01;2.60;;;2.17;;
15944;SDS011;30172;48.832;8.732;2024-01-30T10:02:31;3.50;;;2.10;;
15944;SDS011;30172;48.832;8.732;2024-01-30T10:04:56;2.30;;;2.00;;
15944;SDS011;30172;48.832;8.732;2024-01-30T10:07:22;3.27;;;2.27;;
15944;SDS011;30172;48.832;8.732;2024-01-30T10:09:48;3.53;;;2.13;;
15944;SDS011;30172;48.832;8.732;2024-01-30T10:12:14;3.13;;;2.23;;
15944;SDS011;30172;48.832;8.732;2024-01-30T10:14:39;3.70;;;2.13;;
15944;SDS011;30172;48.832;8.732;2024-01-30T10:17:07;4.23;;;2.47;;
15944;SDS011;30172;48.832;8.732;2024-01-30T10:19:33;4.67;;;2.77;;
15944;SDS011;30172;48.832;8.732;2024-01-30T10:21:59;3.40;;;3.07;;
15944;SDS011;30172;48.832;8.732;2024-01-30T10:24:25;3.43;;;3.00;;
15944;SDS011;30172;48.832;8.732;2024-01-30T10:26:51;4.17;;;3.23;;
15944;SDS011;30172;48.832;8.732;2024-01-30T10:29:17;3.87;;;3.10;;
15944;SDS011;30172;48.832;8.732;2024-01-30T10:31:42;5.77;;;3.10;;
15944;SDS011;30172;48.832;8.732;2024-01-30T10:34:07;5.87;;;3.50;;
15944;SDS011;30172;48.832;8.732;2024-01-30T10:36:33;4.47;;;3.40;;
15944;SDS011;30172;48.832;8.732;2024-01-30T10:39:05;4.90;;;3.40;;
15944;SDS011;30172;48.832;8.732;2024-01-30T10:41:31;6.07;;;3.47;;
15944;SDS011;30172;48.832;8.732;2024-01-30T10:44:08;6.50;;;4.27;;
15944;SDS011;30172;48.832;8.732;2024-01-30T10:46:34;7.37;;;3.77;;
15944;SDS011;30172;48.832;8.732;2024-01-30T10:49:00;4.43;;;3.10;;
15944;SDS011;30172;48.832;8.732;2024-01-30T10:51:26;7.97;;;3.20;;
15944;SDS011;30172;48.832;8.732;2024-01-30T10:53:52;3.77;;;2.80;;
15944;SDS011;30172;48.832;8.732;2024-01-30T10:56:20;3.00;;;2.70;;
15944;SDS011;30172;48.832;8.732;2024-01-30T10:58:46;2.30;;;2.10;;
15944;SDS011;30172;48.832;8.732;2024-01-30T11:01:11;4.17;;;2.40;;
15944;SDS011;30172;48.832;8.732;2024-01-30T11:03:38;3.53;;;2.47;;
15944;SDS011;30172;48.832;8.732;2024-01-30T11:06:03;3.33;;;2.43;;
15944;SDS011;30172;48.832;8.732;2024-01-30T11:08:31;3.67;;;2.50;;
15944;SDS011;30172;48.832;8.732;2024-01-30T11:10:57;2.60;;;2.30;;
15944;SDS011;30172;48.832;8.732;2024-01-30T11:13:30;2.77;;;2.20;;
15944;SDS011;30172;48.832;8.732;2024-01-30T11:15:55;3.30;;;2.47;;
15944;SDS011;30172;48.832;8.732;2024-01-30T11:18:32;2.40;;;2.20;;
15944;SDS011;30172;48.832;8.732;2024-01-30T11:20:57;3.13;;;2.20;;
15944;SDS011;30172;48.832;8.732;2024-01-30T11:23:23;2.53;;;2.20;;
15944;SDS011;30172;48.832;8.732;2024-01-30T11:25:52;3.30;;;2.27;;
15944;SDS011;30172;48.832;8.732;2024-01-30T11:28:17;2.47;;;2.27;;
15944;SDS011;30172;48.832;8.732;2024-01-30T11:30:43;4.07;;;2.40;;
15944;SDS011;30172;48.832;8.732;2024-01-30T11:33:09;2.50;;;2.20;;
15944;SDS011;30172;48.832;8.732;2024-01-30T11:35:40;6.03;;;3.97;;
15944;SDS011;30172;48.832;8.732;2024-01-30T11:38:09;5.03;;;3.87;;
15944;SDS011;30172;48.832;8.732;2024-01-30T11:40:36;3.07;;;2.57;;
15944;SDS011;30172;48.832;8.732;2024-01-30T11:43:03;3.67;;;2.70;;
15944;SDS011;30172;48.832;8.732;2024-01-30T11:45:30;4.40;;;2.63;;
15944;SDS011;30172;48.832;8.732;2024-01-30T11:47:56;3.50;;;2.50;;
15944;SDS011;30172;48.832;8.732;2024-01-30T11:50:22;3.60;;;2.60;;
15944;SDS011;30172;48.832;8.732;2024-01-30T11:52:48;2.80;;;1.83;;
15944;SDS011;30172;48.832;8.732;2024-01-30T11:55:14;3.97;;;2.40;;
15944;SDS011;30172;48.832;8.732;2024-01-30T11:57:39;2.20;;;2.00;;
15944;SDS011;30172;48.832;8.732;2024-01-30T12:00:05;2.70;;;2.40;;
15944;SDS011;30172;48.832;8.732;2024-01-30T12:02:38;3.23;;;2.20;;
15944;SDS011;30172;48.832;8.732;2024-01-30T12:05:04;2.43;;;2.23;;
15944;SDS011;30172;48.832;8.732;2024-01-30T12:07:30;3.47;;;1.90;;
15944;SDS011;30172;48.832;8.732;2024-01-30T12:09:55;5.63;;;2.40;;
15944;SDS011;30172;48.832;8.732;2024-01-30T12:12:22;2.53;;;2.27;;
15944;SDS011;30172;48.832;8.732;2024-01-30T12:14:49;3.50;;;2.00;;
15944;SDS011;30172;48.832;8.732;2024-01-30T12:17:28;2.70;;;2.50;;
15944;SDS011;30172;48.832;8.732;2024-01-30T12:20:04;2.67;;;2.40;;
15944;SDS011;30172;48.832;8.732;2024-01-30T12:22:36;3.27;;;2.13;;
15944;SDS011;30172;48.832;8.732;2024-01-30T12:27:34;3.30;;;2.70;;
15944;SDS011;30172;48.832;8.732;2024-01-30T12:29:59;2.53;;;2.20;;
15944;SDS011;30172;48.832;8.732;2024-01-30T12:32:24;3.17;;;2.37;;
15944;SDS011;30172;48.832;8.732;2024-01-30T12:34:50;3.77;;;2.23;;
15944;SDS011;30172;48.832;8.732;2024-01-30T12:37:15;2.90;;;2.60;;
15944;SDS011;30172;48.832;8.732;2024-01-30T12:39:46;4.17;;;2.90;;
15944;SDS011;30172;48.832;8.732;2024-01-30T12:42:12;2.60;;;2.33;;
15944;SDS011;30172;48.832;8.732;2024-01-30T12:44:37;5.10;;;2.33;;
15944;SDS011;30172;48.832;8.732;2024-01-30T12:47:03;4.20;;;2.27;;
15944;SDS011;30172;48.832;8.732;2024-01-30T12:49:28;4.73;;;3.00;;
15944;SDS011;30172;48.832;8.732;2024-01-30T12:51:54;3.23;;;2.60;;
15944;SDS011;30172;48.832;8.732;2024-01-30T12:54:19;4.67;;;2.50;;
15944;SDS011;30172;48.832;8.732;2024-01-30T12:56:44;4.40;;;2.57;;
15944;SDS011;30172;48.832;8.732;2024-01-30T12:59:10;3.43;;;2.40;;
15944;SDS011;30172;48.832;8.732;2024-01-30T13:01:35;4.57;;;3.10;;
15944;SDS011;30172;48.832;8.732;2024-01-30T13:04:01;3.40;;;2.73;;
15944;SDS011;30172;48.832;8.732;2024-01-30T13:06:26;3.73;;;2.33;;
15944;SDS011;30172;48.832;8.732;2024-01-30T13:08:52;3.80;;;2.13;;
15944;SDS011;30172;48.832;8.732;2024-01-30T13:11:17;3.30;;;2.40;;
15944;SDS011;30172;48.832;8.732;2024-01-30T13:13:43;2.90;;;2.50;;
15944;SDS011;30172;48.832;8.732;2024-01-30T13:16:08;4.70;;;2.73;;
15944;SDS011;30172;48.832;8.732;2024-01-30T13:18:33;5.37;;;3.50;;
15944;SDS011;30172;48.832;8.732;2024-01-30T13:20:59;6.60;;;3.00;;
15944;SDS011;30172;48.832;8.732;2024-01-30T13:23:25;3.37;;;2.10;;
15944;SDS011;30172;48.832;8.732;2024-01-30T13:25:50;3.07;;;2.30;;
15944;SDS011;30172;48.832;8.732;2024-01-30T13:28:15;4.33;;;2.17;;
15944;SDS011;30172;48.832;8.732;2024-01-30T13:30:40;2.97;;;2.53;;
15944;SDS011;30172;48.832;8.732;2024-01-30T13:33:06;5.67;;;2.30;;
15944;SDS011;30172;48.832;8.732;2024-01-30T13:35:31;5.10;;;2.60;;
15944;SDS011;30172;48.832;8.732;2024-01-30T13:37:57;2.90;;;2.50;;
15944;SDS011;30172;48.832;8.732;2024-01-30T13:40:22;6.43;;;5.77;;
15944;SDS011;30172;48.832;8.732;2024-01-30T13:42:48;6.10;;;5.07;;
15944;SDS011;30172;48.832;8.732;2024-01-30T13:45:13;8.27;;;6.73;;
15944;SDS011;30172;48.832;8.732;2024-01-30T13:47:39;5.60;;;3.27;;
15944;SDS011;30172;48.832;8.732;2024-01-30T13:50:05;3.40;;;3.10;;
15944;SDS011;30172;48.832;8.732;2024-01-30T13:52:31;3.10;;;2.33;;
15944;SDS011;30172;48.832;8.732;2024-01-30T13:54:56;3.07;;;2.47;;
15944;SDS011;30172;48.832;8.732;2024-01-30T13:57:21;4.07;;;3.00;;
15944;SDS011;30172;48.832;8.732;2024-01-30T13:59:47;5.03;;;3.20;;
15944;SDS011;30172;48.832;8.732;2024-01-30T14:02:12;3.37;;;2.97;;
15944;SDS011;30172;48.832;8.732;2024-01-30T14:04:37;4.63;;;3.80;;
15944;SDS011;30172;48.832;8.732;2024-01-30T14:07:03;3.97;;;3.13;;
15944;SDS011;30172;48.832;8.732;2024-01-30T14:09:29;5.23;;;3.70;;
15944;SDS011;30172;48.832;8.732;2024-01-30T14:11:54;4.13;;;3.07;;
15944;SDS011;30172;48.832;8.732;2024-01-30T14:14:20;4.77;;;3.17;;
15944;SDS011;30172;48.832;8.732;2024-01-30T14:16:45;4.03;;;3.20;;
15944;SDS011;30172;48.832;8.732;2024-01-30T14:19:10;3.97;;;3.57;;
15944;SDS011;30172;48.832;8.732;2024-01-30T14:21:35;4.97;;;3.87;;
15944;SDS011;30172;48.832;8.732;2024-01-30T14:24:02;5.63;;;3.73;;
15944;SDS011;30172;48.832;8.732;2024-01-30T14:26:27;7.47;;;4.00;;
15944;SDS011;30172;48.832;8.732;2024-01-30T14:28:53;5.63;;;3.80;;
15944;SDS011;30172;48.832;8.732;2024-01-30T14:31:20;4.87;;;3.63;;
15944;SDS011;30172;48.832;8.732;2024-01-30T14:33:46;5.97;;;4.20;;
15944;SDS011;30172;48.832;8.732;2024-01-30T14:36:12;4.90;;;3.60;;
15944;SDS011;30172;48.832;8.732;2024-01-30T14:38:37;8.47;;;3.80;;
15944;SDS011;30172;48.832;8.732;2024-01-30T14:41:02;6.07;;;3.97;;
15944;SDS011;30172;48.832;8.732;2024-01-30T14:43:29;7.53;;;4.10;;
15944;SDS011;30172;48.832;8.732;2024-01-30T14:45:54;6.20;;;3.53;;